Latest Weather Observations for Legendre Island

IDW60801

Issued at 3:05 pm WST Monday 1 September 2014 (issued every 30 minutes, with the page automatically refreshed every 10 minutes)

About weather observations | Map of weather stations | Latest weather observations for WA | Other Formats
Station Details ID: 004095 Name: LEGENDRE ISLAND Lat: -20.36 Lon: 116.84 Height: 29.0 m
Data from the previous 72 hours. | See also: Recent months for locations in Western Australia
Date/Time
WST
Temp
°C
App
Temp
°C
Dew
Point
Rel
Hum
%
Delta-T
°C
Wind Press
QNH
hPa
Press
MSL
hPa
Rain
since 9 am
mm
Dir
 
Spd
km/h
Gust
km/h
Spd
kts
Gust
kts
01/03:00pm 26.3 26.9 17.6 58 5.5 N 11 13 6 7 1013.7 1013.6 -
01/02:30pm 26.4 26.6 17.7 58 5.5 N 13 15 7 8 1013.8 1013.7 -
01/02:00pm 27.2 27.5 17.1 54 6.3 N 11 13 6 7 1014.3 1014.2 -
01/01:30pm 26.8 27.4 16.7 54 6.3 N 9 11 5 6 1014.8 1014.7 -
01/01:00pm 26.6 27.1 16.5 54 6.2 NNE 9 9 5 5 1015.2 1015.1 -
01/12:30pm 26.6 27.2 15.9 51 6.6 NNE 7 9 4 5 1015.6 1015.4 -
01/12:00pm 26.7 26.9 14.8 48 7.2 NNE 7 9 4 5 1015.8 1015.6 -
01/11:30am 26.8 27.3 15.5 50 6.9 NE 7 9 4 5 1016.0 1015.8 -
01/11:00am 26.4 26.5 15.4 50 6.7 NE 9 9 5 5 1016.4 1016.2 -
01/10:30am 25.7 27.2 18.1 63 4.8 NE 7 9 4 5 1016.5 1016.3 -
01/10:00am 24.5 26.4 18.9 71 3.6 ENE 7 7 4 4 1016.6 1016.4 -
01/09:30am 23.8 27.4 22.1 90 1.1 NNE 6 7 3 4 1016.5 1016.3 -
01/09:00am 23.9 28.6 23.9 100 0.0 E 6 9 3 5 1016.2 1016.0 -
01/08:30am 21.9 25.8 21.9 100 0.0 SE 4 7 2 4 1016.1 1015.9 -
01/08:00am 21.4 23.3 21.4 100 0.0 S 13 15 7 8 1015.6 1015.4 -
01/07:30am 20.9 23.0 20.9 100 0.0 SSW 11 11 6 6 1015.3 1015.2 -
01/07:00am 19.7 21.6 19.7 100 0.0 SSW 9 9 5 5 1015.0 1014.9 -
01/06:30am 19.1 20.3 19.1 100 0.0 SSW 11 13 6 7 1014.7 1014.6 -
01/06:00am 19.5 20.5 19.5 100 0.0 SW 13 15 7 8 1014.5 1014.4 -
01/05:30am 19.2 20.1 19.2 100 0.0 SSW 13 15 7 8 1014.2 1014.1 -
01/05:00am 19.1 19.5 19.1 100 0.0 SW 15 17 8 9 1014.0 1013.9 -
01/04:30am 19.6 19.9 19.6 100 0.0 SSW 17 19 9 10 1013.9 1013.8 -
01/04:00am 19.6 20.3 19.6 100 0.0 SSW 15 17 8 9 1013.7 1013.6 -
01/03:30am 20.0 20.5 20.0 100 0.0 SSW 17 19 9 10 1013.8 1013.7 -
01/03:00am 20.3 20.9 20.3 100 0.0 SW 17 19 9 10 1014.0 1013.9 -
01/02:30am 20.4 21.5 20.4 100 0.0 SW 15 17 8 9 1014.2 1014.1 -
01/02:00am 20.4 21.8 20.4 100 0.0 SW 13 17 7 9 1014.2 1014.1 -
01/01:30am 20.8 22.1 20.8 100 0.0 SW 15 17 8 9 1014.4 1014.3 -
01/01:00am 20.8 22.1 20.8 100 0.0 SW 15 17 8 9 1014.5 1014.4 -
01/12:30am 20.8 21.7 20.8 100 0.0 SW 17 19 9 10 1014.7 1014.6 -
01/12:00am 20.7 21.5 20.7 100 0.0 W 17 17 9 9 1015.0 1014.9 -
 
Date/Time
WST
Temp
°C
App
Temp
°C
Dew
Point
Rel
Hum
%
Delta-T
°C
Wind Press
QNH
hPa
Press
MSL
hPa
Rain
since 9 am
mm
Dir
 
Spd
km/h
Gust
km/h
Spd
kts
Gust
kts
31/11:30pm 20.7 22.3 20.7 100 0.0 W 13 17 7 9 1015.2 1015.1 -
31/11:00pm 21.0 23.1 21.0 100 0.0 W 11 13 6 7 1015.2 1015.1 -
31/10:30pm 21.2 23.8 21.2 100 0.0 WSW 9 11 5 6 1015.0 1014.9 -
31/10:00pm 20.8 23.2 20.8 100 0.0 WSW 9 11 5 6 1015.2 1015.1 -
31/09:30pm 20.6 22.0 20.4 99 0.1 WSW 13 13 7 7 1015.2 1015.1 -
31/09:00pm 20.9 22.1 20.6 98 0.2 WSW 15 15 8 8 1015.1 1015.0 -
31/08:30pm 20.9 22.2 20.2 96 0.4 WSW 13 15 7 8 1014.9 1014.8 -
31/08:00pm 21.8 23.6 20.4 92 0.9 W 11 13 6 7 1014.6 1014.5 -
31/07:30pm 22.0 23.5 19.7 87 1.5 WNW 11 15 6 8 1014.2 1014.1 -
31/07:00pm 22.4 23.6 19.0 81 2.2 NW 11 11 6 6 1014.0 1013.9 -
31/06:30pm 22.7 23.8 18.0 75 2.9 NW 9 13 5 7 1013.8 1013.7 -
31/06:00pm 23.3 24.1 18.2 73 3.2 NNW 11 13 6 7 1013.7 1013.6 -
31/05:30pm 24.0 24.4 18.2 70 3.6 NNW 13 15 7 8 1013.5 1013.4 -
31/05:00pm 24.6 25.6 17.8 66 4.3 N 9 11 5 6 1013.5 1013.4 -
31/04:30pm 24.9 26.1 17.4 63 4.7 N 7 9 4 5 1013.5 1013.4 -
31/04:00pm 25.2 25.5 16.9 60 5.1 N 11 13 6 7 1013.6 1013.5 -
31/03:30pm 26.0 26.5 17.4 59 5.4 N 11 13 6 7 1013.6 1013.5 -
31/03:00pm 26.7 27.2 18.3 60 5.3 N 13 15 7 8 1013.7 1013.6 -
31/02:30pm 26.4 26.4 17.2 57 5.7 N 13 15 7 8 1013.8 1013.7 -
31/02:00pm 26.6 26.7 16.5 54 6.2 N 11 13 6 7 1014.0 1013.9 -
31/01:30pm 26.9 26.7 15.6 50 6.9 N 11 13 6 7 1014.3 1014.2 -
31/01:00pm 26.4 25.9 15.8 52 6.5 N 13 15 7 8 1014.6 1014.5 -
31/12:30pm 27.3 27.5 15.7 49 7.1 N 9 11 5 6 1014.8 1014.7 -
31/12:00pm 26.5 26.6 13.9 45 7.5 NE 6 7 3 4 1015.0 1014.9 -
31/11:30am 26.0 26.0 14.1 47 7.1 ENE 7 9 4 5 1015.3 1015.2 -
31/11:00am 26.0 26.6 15.4 52 6.4 ENE 6 7 3 4 1015.8 1015.6 -
31/10:30am 25.4 26.0 15.4 54 6.1 NNE 6 7 3 4 1016.2 1016.0 -
31/10:00am 26.0 26.0 13.5 46 7.3 NE 6 7 3 4 1016.3 1016.1 -
31/09:30am 24.7 25.7 16.4 60 5.1 NNE 6 7 3 4 1016.4 1016.2 -
31/09:00am 24.4 23.8 12.4 47 6.9 SSE 7 11 4 6 1016.3 1016.1 -
31/08:30am 21.9 21.6 17.3 75 2.8 S 15 17 8 9 1016.0 1015.8 -
31/08:00am 20.9 21.6 20.4 97 0.3 S 17 20 9 11 1015.7 1015.5 -
31/07:30am 20.1 20.3 20.1 100 0.0 S 19 20 10 11 1015.5 1015.3 -
31/07:00am 19.2 19.7 19.2 100 0.0 S 15 17 8 9 1015.3 1015.2 -
31/06:30am 18.6 18.8 18.6 100 0.0 SSW 15 15 8 8 1015.1 1015.0 -
31/06:00am 18.9 18.9 18.9 100 0.0 SSW 17 19 9 10 1014.8 1014.7 -
31/05:30am 19.1 19.2 19.1 100 0.0 SSW 17 20 9 11 1014.7 1014.6 -
31/05:00am 19.4 19.6 19.4 100 0.0 SW 17 20 9 11 1014.6 1014.5 -
31/04:30am 18.9 18.9 18.9 100 0.0 SW 17 17 9 9 1014.5 1014.4 -
31/04:00am 18.8 19.1 18.8 100 0.0 SW 15 17 8 9 1014.5 1014.4 -
31/03:30am 19.1 19.5 19.1 100 0.0 SW 15 17 8 9 1014.5 1014.4 -
31/03:00am 19.2 19.7 19.2 100 0.0 SW 15 17 8 9 1014.7 1014.6 -
31/02:30am 19.4 19.2 19.4 100 0.0 SSW 19 20 10 11 1014.9 1014.8 -
31/02:00am 19.7 20.0 19.7 100 0.0 SSW 17 19 9 10 1015.0 1014.9 -
31/01:30am 19.7 20.0 19.7 100 0.0 SSW 17 19 9 10 1015.2 1015.1 -
31/01:00am 20.0 20.5 20.0 100 0.0 SSW 17 19 9 10 1015.5 1015.3 -
31/12:30am 19.5 20.5 19.5 100 0.0 SSW 13 15 7 8 1015.8 1015.6 -
31/12:00am 19.8 20.6 19.8 100 0.0 SW 15 15 8 8 1015.9 1015.7 -
 
Date/Time
WST
Temp
°C
App
Temp
°C
Dew
Point
Rel
Hum
%
Delta-T
°C
Wind Press
QNH
hPa
Press
MSL
hPa
Rain
since 9 am
mm
Dir
 
Spd
km/h
Gust
km/h
Spd
kts
Gust
kts
30/11:30pm 19.8 20.5 19.6 99 0.1 SW 15 15 8 8 1016.1 1015.9 -
30/11:00pm 20.1 20.9 19.8 98 0.2 SW 15 15 8 8 1016.4 1016.2 -
30/10:30pm 19.9 20.4 19.2 96 0.4 SW 15 15 8 8 1016.5 1016.3 -
30/10:00pm 19.9 20.3 19.1 95 0.5 SW 15 17 8 9 1016.5 1016.3 -
30/09:30pm 20.2 21.0 19.0 93 0.8 WSW 13 15 7 8 1016.7 1016.5 -
30/09:00pm 20.5 21.3 19.0 91 0.9 W 13 15 7 8 1016.8 1016.6 -
30/08:30pm 21.3 22.3 19.4 89 1.2 W 13 15 7 8 1016.7 1016.5 -
30/08:00pm 21.8 22.8 19.4 86 1.5 WNW 13 13 7 7 1016.3 1016.1 -
30/07:30pm 21.8 22.5 18.8 83 1.9 NW 13 15 7 8 1016.0 1015.8 -
30/07:00pm 22.7 23.4 18.9 79 2.4 NNW 13 15 7 8 1015.8 1015.6 -
30/06:30pm 22.4 22.5 17.5 74 3.0 WNW 13 13 7 7 1015.6 1015.4 -
30/06:00pm 23.3 23.9 17.7 71 3.5 NNW 11 15 6 8 1015.2 1015.1 -
30/05:30pm 24.1 24.7 17.6 67 4.1 NW 11 13 6 7 1015.2 1015.1 -
30/05:00pm 24.8 25.1 17.0 62 4.8 NNW 11 13 6 7 1015.2 1015.1 -
30/04:30pm 25.4 25.5 16.5 58 5.5 NNW 11 13 6 7 1015.2 1015.1 -
30/04:00pm 25.4 25.3 16.0 56 5.7 NNW 11 13 6 7 1015.1 1015.0 -
30/03:30pm 25.8 25.8 15.2 52 6.4 N 9 11 5 6 1015.1 1015.0 -
30/03:00pm 25.9 25.8 15.0 51 6.6 N 9 11 5 6 1015.2 1015.1 -
30/02:30pm 26.1 26.1 15.2 51 6.6 N 9 11 5 6 1015.3 1015.2 -
30/02:00pm 26.2 26.3 15.6 52 6.4 N 9 11 5 6 1015.5 1015.3 -
30/01:30pm 26.4 26.2 14.8 49 7.0 NNE 9 9 5 5 1015.9 1015.7 -
30/01:00pm 27.2 26.6 13.5 42 8.1 NNE 9 11 5 6 1016.2 1016.0 -
30/12:30pm 26.5 26.2 14.3 47 7.3 NNE 9 11 5 6 1016.5 1016.3 -
30/12:00pm 26.6 25.9 13.3 43 7.8 NE 9 9 5 5 1016.9 1016.7 -
30/11:30am 26.6 26.1 13.7 45 7.6 ENE 9 11 5 6 1017.2 1017.0 -
30/11:00am 26.2 24.7 10.4 37 8.8 E 9 11 5 6 1017.5 1017.3 -
30/10:30am 25.7 24.6 13.2 46 7.3 E 11 13 6 7 1017.7 1017.5 -
30/10:00am 26.9 25.0 10.6 36 9.2 E 11 15 6 8 1017.8 1017.6 -
30/09:30am 27.2 22.2 1.6 19 12.3 SSE 17 22 9 12 1017.8 1017.6 -
30/09:00am 26.7 22.0 3.2 22 11.6 SSE 17 20 9 11 1017.8 1017.6 -
30/08:30am 25.4 22.3 7.1 31 9.6 SSE 13 17 7 9 1017.7 1017.5 -
30/08:00am 23.1 20.7 8.8 40 7.6 S 11 17 6 9 1017.5 1017.3 -
30/07:30am 21.1 17.6 8.7 45 6.5 S 17 19 9 10 1017.2 1017.0 -
30/07:00am 19.1 16.6 11.2 60 4.3 S 15 19 8 10 1016.9 1016.7 -
30/06:30am 18.0 14.5 8.8 55 4.8 SSE 17 19 9 10 1016.4 1016.2 -
30/06:00am 18.3 16.0 10.4 60 4.2 S 13 15 7 8 1016.3 1016.1 -
30/05:30am 18.1 15.6 11.2 64 3.8 S 15 15 8 8 1016.1 1015.9 -
30/05:00am 18.1 15.1 10.5 61 4.1 S 17 19 9 10 1015.9 1015.7 -
30/04:30am 17.4 13.8 10.5 64 3.7 S 20 24 11 13 1015.9 1015.7 -
30/04:00am 17.9 15.3 13.2 74 2.6 S 19 22 10 12 1016.0 1015.8 -
30/03:30am 18.2 18.1 17.0 93 0.7 S 13 15 7 8 1016.1 1015.9 -
30/03:00am 18.9 20.3 17.7 93 0.7 S 7 9 4 5 1016.3 1016.1 -
30/02:30am 19.0 20.1 18.0 94 0.6 S 9 9 5 5 1016.4 1016.2 -
30/02:00am 18.6 19.2 17.8 95 0.5 S 11 13 6 7 1016.6 1016.4 -
30/01:30am 18.7 19.0 18.0 96 0.4 S 13 15 7 8 1016.7 1016.5 -
30/01:00am 19.1 20.0 18.4 96 0.4 S 11 13 6 7 1016.9 1016.7 -
30/12:30am 19.0 19.4 18.2 95 0.5 S 13 15 7 8 1017.1 1016.9 -
30/12:00am 18.8 19.3 18.3 97 0.3 SSW 13 13 7 7 1017.1 1016.9 -
 
Date/Time
WST
Temp
°C
App
Temp
°C
Dew
Point
Rel
Hum
%
Delta-T
°C
Wind Press
QNH
hPa
Press
MSL
hPa
Rain
since 9 am
mm
Dir
 
Spd
km/h
Gust
km/h
Spd
kts
Gust
kts
29/11:30pm 19.2 20.7 19.0 99 0.1 SSW 9 11 5 6 1017.4 1017.2 -
29/11:00pm 19.2 20.7 19.0 99 0.1 S 9 11 5 6 1017.6 1017.4 -
29/10:30pm 19.4 20.7 19.2 99 0.1 S 11 13 6 7 1017.6 1017.4 -
29/10:00pm 19.7 21.1 19.5 99 0.1 SSW 11 13 6 7 1017.7 1017.5 -
29/09:30pm 19.6 20.9 19.3 98 0.2 SSW 11 13 6 7 1017.7 1017.5 -
29/09:00pm 19.9 21.1 19.1 95 0.5 SW 11 11 6 6 1017.5 1017.3 -
29/08:30pm 21.4 23.8 19.7 90 1.1 WSW 6 7 3 4 1017.4 1017.2 -
29/08:00pm 21.9 24.6 19.5 86 1.5 W 4 6 2 3 1017.0 1016.8 -
29/07:30pm 22.4 25.0 19.2 82 2.0 NNW 4 6 2 3 1016.7 1016.5 -
29/07:00pm 22.4 24.1 18.0 76 2.7 NNW 6 7 3 4 1016.3 1016.1 -
29/06:30pm 22.7 23.8 17.2 71 3.4 NNW 7 9 4 5 1016.1 1015.9 -
29/06:00pm 22.8 23.5 16.1 66 4.1 NW 7 9 4 5 1015.9 1015.7 -
29/05:30pm 24.1 24.5 15.3 58 5.3 NNW 7 9 4 5 1015.8 1015.6 -
29/05:00pm 24.4 25.0 16.9 63 4.6 N 9 11 5 6 1015.8 1015.6 -
29/04:30pm 25.1 25.1 17.3 62 4.9 N 13 15 7 8 1015.7 1015.5 -
29/04:00pm 25.2 24.9 16.4 58 5.4 N 13 17 7 9 1015.8 1015.6 -
29/03:30pm 25.7 25.2 16.0 55 5.9 N 13 15 7 8 1015.9 1015.7 -

Other Formats:

Comma delimited format used in spreadsheet applications
http://www.bom.gov.au/fwo/IDW60801/IDW60801.94307.axf

JavaScript Object Notation format (JSON) in row-major order
http://www.bom.gov.au/fwo/IDW60801/IDW60801.94307.json